Historique des mesures à Cassis (13260), France
Quotidien Résumé Mars 27, 2018 Unités:  Métrique    US   Métrique/US
« Précédent (Jour)
Suivant (Jour) »
Quotidien Hebdomadaire Mensuel Annuel Période au choix
  Maximum: Minimum: Moyenne:
Température: TemperatureC °C 9.8 °C 11.8 °C
Point de rosée: DewpointC °C 2.7 °C 4.6 °C
Humidité: Humidity % 43 % 58 %
Vitesse du vent: 0 km/h 7.6 km/h 25.7 km/h
Rafales: 0 km/h - -
Vent:- - West
Pression: PressurehPa hPa 1010.0 hPa -
Précipitations: 0.0 mm    
Historical Graphs
 
 
Mesures pour : Mars 27, 2018
Heure Temperature Point de rosée Pression Vent Vitesse du vent Rafales Humidité Pluie (par heure) Conditions
TemperatureC °C DewpointC °C PressurehPa hPa Calm     Humidity % HourlyPrecipMM mm SoftwareType W/m2
00:12 11.9 °C 4.2 °C 1010.0 hPa NW 66 km/h 66 km/h 59 % 0.0 mm open2300-1.11 W/m2
01:10 11.5 °C 4.2 °C 1010.4 hPa WNW 50.5 km/h 50.5 km/h 61 % 0.0 mm open2300-1.11 W/m2
02:10 11.2 °C 4.2 °C 1010.4 hPa WNW 33.6 km/h 33.6 km/h 62 % 0.0 mm open2300-1.11 W/m2
03:10 11.1 °C 4.1 °C 1010.4 hPa North 34.1 km/h 45.9 km/h 62 % 0.0 mm open2300-1.11 W/m2
04:11 10.6 °C 4.1 °C 1010.4 hPa NNW 24.3 km/h 37 km/h 64 % 0.0 mm open2300-1.11 W/m2
05:11 10.3 °C 4.0 °C 1010.7 hPa WNW 22.5 km/h 38.3 km/h 65 % 0.0 mm open2300-1.11 W/m2
06:11 10.1 °C 4.0 °C 1011.1 hPa NW 25.4 km/h 30.7 km/h 66 % 0.0 mm open2300-1.11 W/m2
07:10 9.9 °C 3.8 °C 1011.4 hPa NW 41.2 km/h 41.2 km/h 66 % 0.0 mm open2300-1.11 W/m2
08:10 9.8 °C 3.7 °C 1012.1 hPa WNW 25.4 km/h 25.4 km/h 66 % 0.0 mm open2300-1.11 W/m2
09:10 10.3 °C 3.8 °C 1012.4 hPa NW 8 km/h 30.7 km/h 64 % 0.0 mm open2300-1.11 W/m2
10:10 10.9 °C 3.6 °C 1012.8 hPa West 19.6 km/h 19.6 km/h 61 % 0.0 mm open2300-1.11 W/m2
11:10 11.6 °C 3.6 °C 1012.8 hPa WNW 27.7 km/h 27.7 km/h 58 % 0.0 mm open2300-1.11 W/m2
12:10 13.1 °C 3.7 °C 1012.8 hPa NW 14 km/h 24.8 km/h 53 % 0.0 mm open2300-1.11 W/m2
13:10 14.5 °C 3.3 °C 1012.4 hPa NNW 27.2 km/h 27.2 km/h 47 % 0.0 mm open2300-1.11 W/m2
14:10 15.3 °C 2.7 °C 1012.4 hPa WNW 41.7 km/h 41.7 km/h 43 % 0.0 mm open2300-1.11 W/m2
15:10 15.3 °C 3.4 °C 1012.1 hPa NW 10.9 km/h 47.3 km/h 45 % 0.0 mm open2300-1.11 W/m2
16:10 14.6 °C 5.4 °C 1011.7 hPa NW 27.2 km/h 63.2 km/h 54 % 0.0 mm open2300-1.11 W/m2
17:12 14.5 °C 5.3 °C 1011.4 hPa NNW 13.2 km/h 30.1 km/h 54 % 0.0 mm open2300-1.11 W/m2
18:12 13.8 °C 5.4 °C 1011.7 hPa West 9.3 km/h 34.8 km/h 57 % 0.0 mm open2300-1.11 W/m2
19:12 13.4 °C 5.9 °C 1011.4 hPa North 13.2 km/h 49.2 km/h 60 % 0.0 mm open2300-1.11 W/m2
20:12 12.3 °C 7.0 °C 1011.7 hPa WNW 20.3 km/h 27.7 km/h 70 % 0.0 mm open2300-1.11 W/m2
21:12 12.3 °C 7.4 °C 1011.4 hPa North 7.6 km/h 20.3 km/h 72 % 0.0 mm open2300-1.11 W/m2
22:12 12.8 °C 8.3 °C 1011.4 hPa WNW 36.5 km/h 36.5 km/h 74 % 0.0 mm open2300-1.11 W/m2
23:12 13.1 °C 8.9 °C 1011.1 hPa WNW 44.1 km/h 44.1 km/h 76 % 0.0 mm open2300-1.11 W/m2
Observations météo à CASSIS
WU-History script by Weather Underground - 1 mb